createdAt,value
2023-02-04T00:00:27.797Z,99438.09
2023-02-04T00:02:55.705Z,99434.63
2023-02-04T00:05:23.470Z,99443.22
2023-02-04T00:07:51.230Z,99441.50
2023-02-04T00:10:19.403Z,99453.47
2023-02-04T00:12:47.325Z,99446.59
2023-02-04T00:15:15.188Z,99461.16
2023-02-04T00:17:43.029Z,99455.19
2023-02-04T00:20:11.158Z,99468.94
2023-02-04T00:22:38.940Z,99457.03
2023-02-04T00:25:07.315Z,99459.59
2023-02-04T00:27:35.093Z,99451.06
2023-02-04T00:30:03.524Z,99460.53
2023-02-04T00:32:31.480Z,99455.41
2023-02-04T00:34:59.225Z,99452.88
2023-02-04T00:37:27.179Z,99446.09
2023-02-04T00:39:55.056Z,99449.59
2023-02-04T00:42:22.979Z,99456.38
2023-02-04T00:44:50.615Z,99460.69
2023-02-04T00:47:18.451Z,99459.72
2023-02-04T00:49:46.223Z,99457.91
2023-02-04T00:52:14.040Z,99465.50
2023-02-04T00:54:41.936Z,99461.09
2023-02-04T00:57:09.836Z,99463.56
2023-02-04T00:59:37.608Z,99460.06
2023-02-04T01:02:05.530Z,99467.69
2023-02-04T01:04:33.390Z,99464.19
2023-02-04T01:07:01.077Z,99463.19
2023-02-04T01:09:28.888Z,99458.88
2023-02-04T01:11:56.703Z,99463.94
2023-02-04T01:14:24.502Z,99469.88
2023-02-04T01:16:52.193Z,99471.41
2023-02-04T01:19:21.506Z,99468.69
2023-02-04T01:21:49.437Z,99475.38
2023-02-04T01:24:17.170Z,99472.69
2023-02-04T01:27:03.130Z,99473.41
2023-02-04T01:29:31.314Z,99468.16
2023-02-04T01:31:59.479Z,99474.03
2023-02-04T01:34:27.440Z,99475.59
2023-02-04T01:36:55.105Z,99473.75
2023-02-04T01:39:22.932Z,99472.88
2023-02-04T01:41:50.767Z,99476.28
2023-02-04T01:44:18.688Z,99478.75
2023-02-04T01:46:46.507Z,99492.47
2023-02-04T01:49:14.262Z,99486.28
2023-02-04T01:51:42.080Z,99486.00
2023-02-04T01:54:12.653Z,99483.25
2023-02-04T01:56:40.832Z,99487.59
2023-02-04T01:59:15.694Z,99480.78
2023-02-04T02:01:53.257Z,99479.00
2023-02-04T02:04:31.371Z,99478.16
2023-02-04T02:07:04.297Z,99473.97
2023-02-04T02:09:32.117Z,99483.31
2023-02-04T02:11:59.925Z,99483.28
2023-02-04T02:14:27.757Z,99480.94
2023-02-04T02:16:55.684Z,99475.88
2023-02-04T02:19:27.941Z,99479.19
2023-02-04T02:22:17.823Z,99474.00
2023-02-04T02:24:45.611Z,99481.75
2023-02-04T02:27:13.822Z,99493.75
2023-02-04T02:29:41.955Z,99484.00
2023-02-04T02:32:11.383Z,99486.38
2023-02-04T02:34:39.889Z,99493.06
2023-02-04T02:37:09.408Z,99500.59
2023-02-04T02:39:38.108Z,99501.25
2023-02-04T02:42:05.770Z,99489.69
2023-02-04T02:44:33.763Z,99500.44
2023-02-04T02:47:01.449Z,99501.63
2023-02-04T02:49:30.186Z,99495.00
2023-02-04T02:51:58.023Z,99499.72
2023-02-04T02:54:31.147Z,99500.94
2023-02-04T02:57:02.353Z,99501.41
2023-02-04T02:59:30.156Z,99505.50
2023-02-04T03:02:00.528Z,99506.00
2023-02-04T03:04:31.049Z,99499.03
2023-02-04T03:06:58.833Z,99504.22
2023-02-04T03:09:26.756Z,99505.91
2023-02-04T03:11:54.774Z,99510.66
2023-02-04T03:14:22.835Z,99508.00
2023-02-04T03:16:50.589Z,99503.19
2023-02-04T03:19:18.392Z,99505.50
2023-02-04T03:21:46.177Z,99508.50
2023-02-04T03:24:13.920Z,99520.66
2023-02-04T03:26:41.761Z,99516.22
2023-02-04T03:29:12.643Z,99518.72
2023-02-04T03:31:40.486Z,99519.47
2023-02-04T03:34:08.475Z,99517.22
2023-02-04T03:36:36.987Z,99520.00
2023-02-04T03:39:05.043Z,99510.63
2023-02-04T03:41:32.878Z,99510.63
2023-02-04T03:44:00.707Z,99511.63
2023-02-04T03:46:29.184Z,99512.69
2023-02-04T03:48:57.005Z,99517.06
2023-02-04T03:51:25.026Z,99511.97
2023-02-04T03:53:52.694Z,99500.91
2023-02-04T03:56:20.459Z,99509.47
2023-02-04T03:58:48.276Z,99516.16
2023-02-04T04:01:16.037Z,99518.41
2023-02-04T04:03:45.595Z,99521.69
2023-02-04T04:06:13.515Z,99529.25
2023-02-04T04:08:41.244Z,99532.41
2023-02-04T04:11:09.040Z,99533.81
2023-02-04T04:13:36.938Z,99530.16
2023-02-04T04:16:05.413Z,99522.97
2023-02-04T04:18:33.407Z,99527.50
2023-02-04T04:21:01.164Z,99527.31
2023-02-04T04:23:29.041Z,99529.50
2023-02-04T04:25:56.898Z,99517.06
2023-02-04T04:28:24.767Z,99524.38
2023-02-04T04:30:52.752Z,99522.09
2023-02-04T04:33:20.521Z,99522.63
2023-02-04T04:35:48.247Z,99512.47
2023-02-04T04:38:16.055Z,99516.88
2023-02-04T04:40:43.792Z,99525.28
2023-02-04T04:43:11.465Z,99522.16
2023-02-04T04:45:39.194Z,99523.59
2023-02-04T04:48:06.950Z,99528.41
2023-02-04T04:50:34.948Z,99531.84
2023-02-04T04:53:02.751Z,99526.34
2023-02-04T04:55:31.026Z,99521.88
2023-02-04T04:57:58.906Z,99527.19
2023-02-04T05:00:26.757Z,99521.38
2023-02-04T05:02:54.677Z,99524.34
2023-02-04T05:05:22.420Z,99528.91
2023-02-04T05:07:50.143Z,99526.72
2023-02-04T05:10:18.483Z,99522.06
2023-02-04T05:12:46.475Z,99512.69
2023-02-04T05:15:14.352Z,99510.09
2023-02-04T05:17:42.083Z,99509.81
2023-02-04T05:20:10.584Z,99512.56
2023-02-04T05:22:38.538Z,99508.34
2023-02-04T05:25:06.713Z,99512.56
2023-02-04T05:27:34.483Z,99503.50
2023-02-04T05:30:02.234Z,99498.00
2023-02-04T05:32:30.282Z,99502.53
2023-02-04T05:34:58.038Z,99495.84
2023-02-04T05:37:26.001Z,99498.72
2023-02-04T05:39:53.853Z,99482.03
2023-02-04T05:42:21.570Z,99490.78
2023-02-04T05:44:49.546Z,99497.69
2023-02-04T05:47:17.428Z,99505.47
2023-02-04T05:49:45.253Z,99494.41
2023-02-04T05:52:13.262Z,99499.59
2023-02-04T05:54:41.179Z,99499.72
2023-02-04T05:57:08.971Z,99502.47
2023-02-04T05:59:36.876Z,99501.56
2023-02-04T06:02:04.841Z,99499.44
2023-02-04T06:04:32.733Z,99498.56
2023-02-04T06:07:00.389Z,99501.03
2023-02-04T06:09:28.227Z,99503.63
2023-02-04T06:11:56.123Z,99501.72
2023-02-04T06:14:24.141Z,99497.31
2023-02-04T06:16:52.076Z,99500.81
2023-02-04T06:19:19.942Z,99490.94
2023-02-04T06:21:47.976Z,99506.69
2023-02-04T06:24:15.633Z,99501.97
2023-02-04T06:26:45.314Z,99498.41
2023-02-04T06:29:13.247Z,99501.44
2023-02-04T06:31:41.109Z,99502.97
2023-02-04T06:34:09.079Z,99495.03
2023-02-04T06:36:37.059Z,99493.81
2023-02-04T06:39:04.873Z,99500.59
2023-02-04T06:41:34.550Z,99496.91
2023-02-04T06:44:02.394Z,99504.22
2023-02-04T06:46:30.387Z,99502.47
2023-02-04T06:48:58.230Z,99500.66
2023-02-04T06:51:26.567Z,99499.81
2023-02-04T06:53:54.392Z,99505.72
2023-02-04T06:56:22.300Z,99500.66
2023-02-04T06:58:49.991Z,99489.44
2023-02-04T07:01:17.943Z,99487.06
2023-02-04T07:03:45.755Z,99487.34
2023-02-04T07:06:13.547Z,99489.31
2023-02-04T07:08:41.432Z,99489.03
2023-02-04T07:11:09.200Z,99482.88
2023-02-04T07:13:36.999Z,99475.16
2023-02-04T07:16:05.078Z,99479.50
2023-02-04T07:18:32.952Z,99478.66
2023-02-04T07:21:00.729Z,99489.94
2023-02-04T07:23:29.130Z,99483.84
2023-02-04T07:25:57.839Z,99488.25
2023-02-04T07:28:26.093Z,99482.25
2023-02-04T07:30:57.011Z,99495.94
2023-02-04T07:33:25.048Z,99490.56
2023-02-04T07:35:52.992Z,99490.50
2023-02-04T07:38:20.870Z,99490.41
2023-02-04T07:40:48.711Z,99485.06
2023-02-04T07:43:16.804Z,99481.25
2023-02-04T07:45:44.720Z,99481.72
2023-02-04T07:48:12.543Z,99487.22
2023-02-04T07:50:40.414Z,99489.09
2023-02-04T07:53:08.417Z,99484.13
2023-02-04T07:55:36.290Z,99486.72
2023-02-04T07:58:04.317Z,99487.44
2023-02-04T08:00:32.441Z,99484.00
2023-02-04T08:03:00.592Z,99492.38
2023-02-04T08:05:28.488Z,99485.22
2023-02-04T08:07:56.586Z,99490.19
2023-02-04T08:10:24.290Z,99492.81
2023-02-04T08:12:52.229Z,99494.50
2023-02-04T08:15:20.012Z,99492.56
2023-02-04T08:17:47.812Z,99492.94
2023-02-04T08:20:17.055Z,99499.47
2023-02-04T08:22:45.178Z,99499.88
2023-02-04T08:25:13.097Z,99504.91
2023-02-04T08:27:40.976Z,99505.66
2023-02-04T08:30:09.456Z,99500.38
2023-02-04T08:32:37.361Z,99510.75
2023-02-04T08:35:06.544Z,99492.50
2023-02-04T08:37:34.329Z,99500.19
2023-02-04T08:40:03.264Z,99505.25
2023-02-04T08:42:31.281Z,99516.69
2023-02-04T08:44:59.375Z,99505.66
2023-02-04T08:47:27.225Z,99516.75
2023-02-04T08:49:55.157Z,99514.41
2023-02-04T08:52:23.230Z,99518.81
2023-02-04T08:54:51.001Z,99527.47
2023-02-04T08:57:18.944Z,99528.25
2023-02-04T08:59:46.840Z,99524.88
2023-02-04T09:02:14.895Z,99530.97
2023-02-04T09:04:42.664Z,99530.97
2023-02-04T09:07:11.046Z,99530.31
2023-02-04T09:09:38.966Z,99538.13
2023-02-04T09:12:06.726Z,99527.84
2023-02-04T09:14:34.486Z,99537.59
2023-02-04T09:17:02.487Z,99532.69
2023-02-04T09:19:30.366Z,99541.44
2023-02-04T09:21:58.083Z,99537.50
2023-02-04T09:24:26.099Z,99532.81
2023-02-04T09:26:54.083Z,99539.09
2023-02-04T09:29:21.891Z,99547.34
2023-02-04T09:31:49.856Z,99541.78
2023-02-04T09:34:17.595Z,99539.59
2023-02-04T09:36:45.523Z,99544.31
2023-02-04T09:39:13.491Z,99549.69
2023-02-04T09:41:41.684Z,99544.16
2023-02-04T09:44:18.395Z,99553.06
2023-02-04T09:46:49.117Z,99546.81
2023-02-04T09:49:17.111Z,99555.69
2023-02-04T09:51:45.355Z,99555.09
2023-02-04T09:54:17.086Z,99555.34
2023-02-04T09:56:44.975Z,99557.22
2023-02-04T09:59:20.829Z,99560.03
2023-02-04T10:01:55.513Z,99563.50
2023-02-04T10:04:23.445Z,99557.53
2023-02-04T10:06:51.238Z,99551.56
2023-02-04T10:09:18.966Z,99561.13
2023-02-04T10:11:47.888Z,99553.34
2023-02-04T10:14:23.019Z,99549.81
2023-02-04T10:17:09.184Z,99560.09
2023-02-04T10:19:36.885Z,99561.59
2023-02-04T10:22:08.181Z,99563.25
2023-02-04T10:24:35.918Z,99560.72
2023-02-04T10:27:11.038Z,99564.09
2023-02-04T10:29:38.908Z,99563.16
2023-02-04T10:32:06.757Z,99568.16
2023-02-04T10:34:38.276Z,99566.41
2023-02-04T10:37:26.276Z,99563.81
2023-02-04T10:39:54.326Z,99574.28
2023-02-04T10:42:29.883Z,99570.94
2023-02-04T10:44:58.090Z,99576.97
2023-02-04T10:47:29.612Z,99574.38
2023-02-04T10:50:06.594Z,99574.41
2023-02-04T10:52:39.935Z,99569.38
2023-02-04T10:55:09.530Z,99574.88
2023-02-04T10:57:39.677Z,99576.91
2023-02-04T11:00:15.600Z,99581.41
2023-02-04T11:03:04.888Z,99577.25
2023-02-04T11:05:33.988Z,99585.16
2023-02-04T11:08:02.283Z,99582.72
2023-02-04T11:10:34.221Z,99594.81
2023-02-04T11:13:05.906Z,99595.75
2023-02-04T11:15:44.882Z,99596.91
2023-02-04T11:18:21.684Z,99597.84
2023-02-04T11:20:50.025Z,99604.84
2023-02-04T11:23:27.835Z,99610.13
2023-02-04T11:26:08.072Z,99609.53
2023-02-04T11:28:48.074Z,99599.50
2023-02-04T11:31:28.667Z,99609.25
2023-02-04T11:34:10.927Z,99612.03
2023-02-04T11:37:12.584Z,99622.50
2023-02-04T11:39:44.064Z,99623.56
2023-02-04T11:42:18.115Z,99619.28
2023-02-04T11:44:59.753Z,99619.28
2023-02-04T11:47:28.171Z,99620.97
2023-02-04T11:50:00.608Z,99620.94
2023-02-04T11:52:28.480Z,99624.31
2023-02-04T11:54:58.345Z,99621.88
2023-02-04T11:57:26.935Z,99626.16
2023-02-04T11:59:55.204Z,99626.16
2023-02-04T12:02:24.634Z,99628.78
2023-02-04T12:05:10.145Z,99628.84
2023-02-04T12:07:38.946Z,99629.81
2023-02-04T12:10:18.914Z,99629.00
2023-02-04T12:12:52.477Z,99636.88
2023-02-04T12:15:24.908Z,99635.31
2023-02-04T12:18:03.087Z,99632.75
2023-02-04T12:20:30.994Z,99630.22
2023-02-04T12:22:59.125Z,99637.16
2023-02-04T12:25:30.530Z,99626.75
2023-02-04T12:27:58.455Z,99619.06
2023-02-04T12:30:26.710Z,99623.34
2023-02-04T12:32:54.561Z,99634.50
2023-02-04T12:35:22.400Z,99631.13
2023-02-04T12:37:50.381Z,99638.88
2023-02-04T12:40:19.625Z,99628.50
2023-02-04T12:42:47.569Z,99637.94
2023-02-04T12:45:16.097Z,99644.88
2023-02-04T12:47:43.997Z,99636.28
2023-02-04T12:50:13.431Z,99640.56
2023-02-04T12:52:41.480Z,99648.28
2023-02-04T12:55:09.475Z,99647.41
2023-02-04T12:57:37.268Z,99639.75
2023-02-04T13:00:05.725Z,99649.13
2023-02-04T13:02:33.549Z,99642.28
2023-02-04T13:05:02.345Z,99651.78
2023-02-04T13:07:30.429Z,99649.34
2023-02-04T13:09:58.995Z,99650.16
2023-02-04T13:12:27.095Z,99645.91
2023-02-04T13:14:54.889Z,99658.00
2023-02-04T13:17:22.821Z,99647.66
2023-02-04T13:19:50.538Z,99639.94
2023-02-04T13:22:18.336Z,99630.63
2023-02-04T13:24:46.225Z,99640.91
2023-02-04T13:27:15.617Z,99648.69
2023-02-04T13:29:43.404Z,99646.19
2023-02-04T13:32:11.218Z,99649.72
2023-02-04T13:34:39.115Z,99648.88
2023-02-04T13:37:06.910Z,99657.47
2023-02-04T13:39:34.705Z,99652.28
2023-02-04T13:42:04.500Z,99654.78
2023-02-04T13:44:33.736Z,99660.81
2023-02-04T13:47:01.553Z,99653.88
2023-02-04T13:49:29.318Z,99655.59
2023-02-04T13:51:57.148Z,99654.72
2023-02-04T13:54:25.041Z,99652.09
2023-02-04T13:56:52.999Z,99646.06
2023-02-04T13:59:21.168Z,99654.47
2023-02-04T14:01:49.049Z,99645.75
2023-02-04T14:04:17.232Z,99643.06
2023-02-04T14:06:45.054Z,99647.22
2023-02-04T14:09:13.032Z,99648.00
2023-02-04T14:11:41.054Z,99645.41
2023-02-04T14:14:09.147Z,99645.31
2023-02-04T14:16:37.954Z,99646.09
2023-02-04T14:19:06.795Z,99638.38
2023-02-04T14:21:34.712Z,99646.91
2023-02-04T14:24:02.544Z,99641.75
2023-02-04T14:26:30.360Z,99643.56
2023-02-04T14:28:58.261Z,99649.75
2023-02-04T14:31:26.134Z,99655.03
2023-02-04T14:33:54.189Z,99655.03
2023-02-04T14:36:22.719Z,99657.66
2023-02-04T14:38:51.689Z,99662.84
2023-02-04T14:41:22.237Z,99664.59
2023-02-04T14:43:50.061Z,99664.69
2023-02-04T14:46:18.111Z,99660.63
2023-02-04T14:48:45.989Z,99675.38
2023-02-04T14:51:14.340Z,99660.06
2023-02-04T14:53:46.127Z,99675.69
2023-02-04T14:56:16.475Z,99682.66
2023-02-04T14:58:44.389Z,99680.28
2023-02-04T15:01:12.535Z,99685.53
2023-02-04T15:03:40.519Z,99677.00
2023-02-04T15:06:08.379Z,99687.38
2023-02-04T15:08:36.545Z,99679.69
2023-02-04T15:11:04.539Z,99683.09
2023-02-04T15:13:32.431Z,99681.47
2023-02-04T15:16:00.444Z,99681.53
2023-02-04T15:18:28.547Z,99686.72
2023-02-04T15:20:56.417Z,99681.56
2023-02-04T15:23:24.310Z,99688.44
2023-02-04T15:25:52.594Z,99686.66
2023-02-04T15:28:20.359Z,99690.91
2023-02-04T15:30:48.502Z,99686.59
2023-02-04T15:33:17.172Z,99690.88
2023-02-04T15:35:44.985Z,99696.91
2023-02-04T15:38:12.959Z,99692.63
2023-02-04T15:40:40.757Z,99691.75
2023-02-04T15:43:08.743Z,99690.84
2023-02-04T15:45:39.284Z,99686.53
2023-02-04T15:48:07.469Z,99684.78
2023-02-04T15:50:35.138Z,99680.41
2023-02-04T15:53:03.161Z,99691.66
2023-02-04T15:55:30.959Z,99682.25
2023-02-04T15:57:58.715Z,99686.63
2023-02-04T16:00:26.634Z,99691.03
2023-02-04T16:02:54.366Z,99691.94
2023-02-04T16:05:22.071Z,99689.38
2023-02-04T16:07:49.990Z,99693.75
2023-02-04T16:10:18.687Z,99692.94
2023-02-04T16:12:47.824Z,99698.13
2023-02-04T16:15:16.098Z,99697.34
2023-02-04T16:17:44.072Z,99708.63
2023-02-04T16:20:12.262Z,99688.88
2023-02-04T16:22:39.977Z,99697.44
2023-02-04T16:25:08.368Z,99701.72
2023-02-04T16:27:36.195Z,99689.72
2023-02-04T16:30:04.750Z,99696.56
2023-02-04T16:32:34.213Z,99699.94
2023-02-04T16:35:04.800Z,99688.88
2023-02-04T16:37:33.086Z,99692.22
2023-02-04T16:40:00.862Z,99699.94
2023-02-04T16:42:29.984Z,99696.50
2023-02-04T16:44:58.074Z,99699.88
2023-02-04T16:47:26.032Z,99704.97
2023-02-04T16:49:55.576Z,99697.28
2023-02-04T16:52:23.556Z,99692.25
2023-02-04T16:54:51.298Z,99697.44
2023-02-04T16:57:19.062Z,99692.31
2023-02-04T16:59:46.867Z,99697.44
2023-02-04T17:02:14.878Z,99703.44
2023-02-04T17:04:42.789Z,99693.06
2023-02-04T17:07:10.764Z,99695.53
2023-02-04T17:09:38.847Z,99687.81
2023-02-04T17:12:06.784Z,99694.75
2023-02-04T17:14:34.552Z,99695.75
2023-02-04T17:17:02.397Z,99698.41
2023-02-04T17:19:30.182Z,99707.03
2023-02-04T17:21:57.991Z,99713.09
2023-02-04T17:24:26.353Z,99703.75
2023-02-04T17:26:54.204Z,99696.94
2023-02-04T17:29:25.579Z,99698.72
2023-02-04T17:31:53.974Z,99697.06
2023-02-04T17:34:21.806Z,99702.25
2023-02-04T17:36:49.688Z,99704.84
2023-02-04T17:39:17.539Z,99725.41
2023-02-04T17:41:45.358Z,99720.19
2023-02-04T17:44:17.490Z,99721.78
2023-02-04T17:46:45.295Z,99725.94
2023-02-04T17:49:13.189Z,99721.59
2023-02-04T17:51:40.982Z,99718.13
2023-02-04T17:54:10.904Z,99718.13
2023-02-04T17:56:38.673Z,99723.38
2023-02-04T17:59:10.385Z,99722.66
2023-02-04T18:01:38.617Z,99729.59
2023-02-04T18:04:12.332Z,99714.38
2023-02-04T18:06:40.202Z,99725.53
2023-02-04T18:09:17.732Z,99721.38
2023-02-04T18:11:45.532Z,99732.66
2023-02-04T18:14:26.944Z,99737.84
2023-02-04T18:16:57.236Z,99741.31
2023-02-04T18:19:35.653Z,99740.53
2023-02-04T18:22:15.769Z,99741.41
2023-02-04T18:24:45.512Z,99744.81
2023-02-04T18:27:23.906Z,99738.75
2023-02-04T18:29:55.937Z,99738.81
2023-02-04T18:32:44.747Z,99744.88
2023-02-04T18:35:21.670Z,99743.22
2023-02-04T18:37:50.094Z,99738.22
2023-02-04T18:40:26.712Z,99739.22
2023-02-04T18:43:22.190Z,99744.47
2023-02-04T18:45:50.034Z,99744.56
2023-02-04T18:48:20.863Z,99749.75
2023-02-04T18:50:49.443Z,99756.66
2023-02-04T18:53:26.034Z,99754.97
2023-02-04T18:55:55.668Z,99755.00
2023-02-04T18:58:36.928Z,99743.88
2023-02-04T19:01:10.721Z,99749.91
2023-02-04T19:03:46.551Z,99751.66
2023-02-04T19:06:27.704Z,99749.94
2023-02-04T19:09:10.478Z,99748.22
2023-02-04T19:11:46.148Z,99745.66
2023-02-04T19:14:19.417Z,99749.06
2023-02-04T19:16:47.614Z,99749.91
2023-02-04T19:19:43.795Z,99753.31
2023-02-04T19:22:16.965Z,99747.31
2023-02-04T19:24:45.088Z,99747.34
2023-02-04T19:27:29.611Z,99752.50
2023-02-04T19:30:00.112Z,99749.94
2023-02-04T19:32:33.614Z,99748.25
2023-02-04T19:35:10.785Z,99738.81
2023-02-04T19:37:40.366Z,99737.13
2023-02-04T19:40:26.274Z,99745.72
2023-02-04T19:42:55.858Z,99744.84
2023-02-04T19:45:28.345Z,99737.13
2023-02-04T19:47:56.647Z,99740.56
2023-02-04T19:50:33.756Z,99739.72
2023-02-04T19:53:03.169Z,99738.84
2023-02-04T19:55:54.174Z,99743.13
2023-02-04T19:58:29.068Z,99743.97
2023-02-04T20:01:00.797Z,99749.09
2023-02-04T20:03:37.468Z,99747.31
2023-02-04T20:06:27.821Z,99737.94
2023-02-04T20:08:57.275Z,99739.59
2023-02-04T20:11:30.994Z,99744.69
2023-02-04T20:14:10.946Z,99748.94
2023-02-04T20:17:05.441Z,99752.34
2023-02-04T20:19:35.881Z,99750.63
2023-02-04T20:22:18.991Z,99748.03
2023-02-04T20:25:04.807Z,99754.88
2023-02-04T20:27:40.060Z,99759.13
2023-02-04T20:30:11.954Z,99751.38
2023-02-04T20:32:44.564Z,99739.44
2023-02-04T20:35:21.633Z,99741.16
2023-02-04T20:37:54.289Z,99754.06
2023-02-04T20:40:48.262Z,99748.06
2023-02-04T20:43:21.174Z,99742.91
2023-02-04T20:45:59.686Z,99742.91
2023-02-04T20:48:27.705Z,99748.13
2023-02-04T20:50:56.400Z,99746.53
2023-02-04T20:53:59.380Z,99737.16
2023-02-04T20:56:32.663Z,99744.06
2023-02-04T20:59:12.706Z,99745.78
2023-02-04T21:01:50.424Z,99742.38
2023-02-04T21:04:37.441Z,99745.81
2023-02-04T21:07:17.322Z,99738.97
2023-02-04T21:09:48.018Z,99737.31
2023-02-04T21:12:15.875Z,99730.56
2023-02-04T21:14:43.766Z,99738.28
2023-02-04T21:17:11.677Z,99741.72
2023-02-04T21:19:39.542Z,99749.41
2023-02-04T21:22:07.293Z,99742.56
2023-02-04T21:24:35.252Z,99740.03
2023-02-04T21:27:03.204Z,99743.50
2023-02-04T21:29:31.105Z,99752.09
2023-02-04T21:31:58.987Z,99743.53
2023-02-04T21:34:26.737Z,99755.56
2023-02-04T21:36:54.577Z,99745.34
2023-02-04T21:39:22.640Z,99747.94
2023-02-04T21:42:10.546Z,99743.66
2023-02-04T21:44:38.552Z,99742.78
2023-02-04T21:47:06.429Z,99747.06
2023-02-04T21:49:34.249Z,99743.66
2023-02-04T21:52:02.124Z,99744.53
2023-02-04T21:54:29.943Z,99735.09
2023-02-04T21:57:02.320Z,99745.38
2023-02-04T21:59:32.932Z,99743.63
2023-02-04T22:02:00.742Z,99739.34
2023-02-04T22:04:28.648Z,99742.78
2023-02-04T22:06:56.460Z,99739.34
2023-02-04T22:09:24.236Z,99735.94
2023-02-04T22:11:51.972Z,99729.94
2023-02-04T22:14:38.044Z,99735.94
2023-02-04T22:17:05.930Z,99724.00
2023-02-04T22:19:33.787Z,99722.31
2023-02-04T22:22:01.583Z,99725.75
2023-02-04T22:24:29.404Z,99734.31
2023-02-04T22:26:57.131Z,99737.75
2023-02-04T22:29:29.144Z,99736.88
2023-02-04T22:31:56.984Z,99742.03
2023-02-04T22:34:25.831Z,99741.16
2023-02-04T22:36:53.804Z,99738.63
2023-02-04T22:39:21.694Z,99745.50
2023-02-04T22:41:49.577Z,99739.53
2023-02-04T22:44:17.434Z,99742.13
2023-02-04T22:46:47.409Z,99742.13
2023-02-04T22:49:15.348Z,99732.69
2023-02-04T22:51:43.158Z,99734.41
2023-02-04T22:54:11.701Z,99734.41
2023-02-04T22:56:39.556Z,99741.25
2023-02-04T22:59:07.197Z,99730.13
2023-02-04T23:01:35.016Z,99734.44
2023-02-04T23:04:02.922Z,99736.19
2023-02-04T23:06:30.963Z,99741.34
2023-02-04T23:08:58.705Z,99746.47
2023-02-04T23:11:26.399Z,99745.63
2023-02-04T23:13:54.639Z,99738.00
2023-02-04T23:16:22.489Z,99748.22
2023-02-04T23:18:50.288Z,99743.91
2023-02-04T23:21:18.150Z,99753.28
2023-02-04T23:23:45.893Z,99740.41
2023-02-04T23:26:13.924Z,99740.41
2023-02-04T23:28:42.185Z,99749.81
2023-02-04T23:31:10.270Z,99746.41
2023-02-04T23:33:38.134Z,99743.84
2023-02-04T23:36:06.129Z,99753.31
2023-02-04T23:38:33.935Z,99760.16
2023-02-04T23:41:02.066Z,99757.63
2023-02-04T23:43:30.016Z,99755.06
2023-02-04T23:45:57.866Z,99761.88
2023-02-04T23:48:25.803Z,99758.47
2023-02-04T23:50:57.330Z,99752.47
2023-02-04T23:53:25.326Z,99747.31
2023-02-04T23:55:53.091Z,99743.00
2023-02-04T23:58:21.070Z,99747.25
